Time;durP1;ratioP1;P1;durP2;ratioP2;P2;SDS_P1;SDS_P2;PMS_P1;PMS_P2;Temp;Humidity;BMP_temperature;BMP_pressure;BME280_temperature;BME280_humidity;BME280_pressure;Samples;Min_cycle;Max_cycle;Signal;HPM_P1;HPM_P2
2022/06/23 00:01:13;;;;;;;5.97;3.50;;;19.30;74.30;;;;;;4994654;28;20041;-82
2022/06/23 00:03:39;;;;;;;7.80;3.80;;;19.30;74.30;;;;;;4975914;28;20511;-82
2022/06/23 00:06:07;;;;;;;6.88;3.75;;;19.20;74.20;;;;;;4993502;28;20034;-82
2022/06/23 00:08:45;;;;;;;6.75;3.70;;;19.20;74.30;;;;;;4976024;28;20034;-82
2022/06/23 00:11:21;;;;;;;7.38;3.90;;;19.30;74.30;;;;;;4974834;28;20120;-82
2022/06/23 00:13:47;;;;;;;7.05;3.85;;;19.20;74.30;;;;;;4992579;28;20031;-83
2022/06/23 00:16:31;;;;;;;7.15;4.07;;;19.20;74.20;;;;;;4975315;28;20034;-82
2022/06/23 00:18:57;;;;;;;7.85;3.90;;;19.20;74.30;;;;;;4975438;28;20530;-82
2022/06/23 00:21:27;;;;;;;6.43;4.10;;;19.20;74.10;;;;;;4975234;28;20105;-82
2022/06/23 00:23:59;;;;;;;7.07;3.80;;;19.20;74.20;;;;;;4992587;28;20036;-82
2022/06/23 00:26:28;;;;;;;6.07;3.90;;;19.20;74.40;;;;;;4975085;28;20062;-82
2022/06/23 00:29:00;;;;;;;6.50;3.88;;;19.30;74.60;;;;;;4974860;28;20022;-82
2022/06/23 00:31:25;;;;;;;;;;;19.30;74.60;;;;;;4992484;28;20049;-82
2022/06/23 00:33:51;;;;;;;7.60;4.13;;;19.30;74.50;;;;;;4990930;28;19913;-83
2022/06/23 00:36:34;;;;;;;6.18;3.67;;;19.30;74.40;;;;;;4995797;28;20046;-83
2022/06/23 00:39:00;;;;;;;7.78;4.15;;;19.30;74.20;;;;;;4995314;28;20041;-84
2022/06/23 00:41:31;;;;;;;6.53;3.78;;;19.30;74.00;;;;;;4993753;28;20031;-83
2022/06/23 00:44:03;;;;;;;6.43;4.07;;;19.30;74.10;;;;;;4994039;28;20022;-83
2022/06/23 00:46:45;;;;;;;6.50;4.00;;;19.30;74.10;;;;;;4994175;28;20045;-82
2022/06/23 00:49:30;;;;;;;7.05;3.92;;;19.30;74.30;;;;;;4993162;28;20058;-83
2022/06/23 00:52:02;;;;;;;8.00;4.22;;;19.20;74.30;;;;;;4993161;28;20044;-83
2022/06/23 00:54:35;;;;;;;7.07;4.05;;;19.20;74.90;;;;;;4976958;28;20062;-83
2022/06/23 00:57:08;;;;;;;6.50;3.90;;;19.20;74.30;;;;;;4977603;28;20030;-83
2022/06/23 00:59:40;;;;;;;7.00;4.07;;;19.20;74.40;;;;;;4984893;28;20053;-83
2022/06/23 01:02:11;;;;;;;7.68;4.55;;;19.20;74.10;;;;;;4994304;28;20030;-83
2022/06/23 01:05:11;;;;;;;6.88;4.30;;;19.20;74.00;;;;;;4982081;28;20022;-82
2022/06/23 01:07:45;;;;;;;;;;;19.20;74.00;;;;;;4979924;28;20041;-83
2022/06/23 01:10:21;;;;;;;6.68;3.85;;;19.20;74.00;;;;;;4993350;28;19906;-82
2022/06/23 01:13:17;;;;;;;7.75;4.63;;;19.10;73.70;;;;;;4991241;28;20030;-83
2022/06/23 01:15:45;;;;;;;8.43;4.25;;;19.10;73.80;;;;;;4991310;28;20046;-83
2022/06/23 01:18:26;;;;;;;7.88;4.18;;;19.10;73.90;;;;;;4992939;28;20030;-83
2022/06/23 01:20:54;;;;;;;5.80;3.95;;;19.10;74.10;;;;;;4992243;28;20022;-82
2022/06/23 01:23:44;;;;;;;7.20;4.10;;;19.20;74.80;;;;;;4987007;28;20065;-83
2022/06/23 01:26:23;;;;;;;6.75;4.00;;;19.10;74.70;;;;;;4996213;28;20499;-83
2022/06/23 01:28:51;;;;;;;7.65;4.55;;;19.20;74.60;;;;;;4975230;28;20034;-84
2022/06/23 01:31:24;;;;;;;6.82;3.97;;;19.20;74.60;;;;;;4988097;28;20033;-83
2022/06/23 01:34:03;;;;;;;6.80;4.38;;;19.20;74.30;;;;;;4982866;28;20030;-83
2022/06/23 01:36:39;;;;;;;7.75;4.47;;;19.20;74.10;;;;;;4995093;28;20046;-83
2022/06/23 01:39:20;;;;;;;7.63;4.25;;;19.20;74.20;;;;;;4993998;28;20515;-83
2022/06/23 01:42:39;;;;;;;6.63;4.47;;;19.20;74.20;;;;;;4992744;28;20030;-83
2022/06/23 01:45:15;;;;;;;6.35;4.03;;;19.20;74.30;;;;;;4915896;29;20032;-82
2022/06/23 01:48:04;;;;;;;7.45;4.38;;;19.20;74.30;;;;;;4918551;29;20420;-83
2022/06/23 01:50:38;;;;;;;8.60;4.72;;;19.10;73.90;;;;;;4965110;28;20439;-82
2022/06/23 01:53:27;;;;;;;7.57;4.78;;;19.10;73.90;;;;;;4994144;28;20037;-82
2022/06/23 01:56:22;;;;;;;7.32;4.70;;;19.10;74.00;;;;;;4992052;28;20057;-82
2022/06/23 01:58:59;;;;;;;7.65;4.20;;;19.10;74.00;;;;;;4994555;28;20394;-83
2022/06/23 02:01:38;;;;;;;9.05;4.70;;;19.10;73.90;;;;;;4993533;28;20034;-83
2022/06/23 02:04:39;;;;;;;7.70;4.53;;;19.10;74.00;;;;;;4988238;28;20034;-83
2022/06/23 02:07:24;;;;;;;8.82;4.88;;;19.10;74.20;;;;;;4904986;29;20044;-82
2022/06/23 02:09:53;;;;;;;7.43;4.60;;;19.10;74.30;;;;;;4970060;28;20042;-83
2022/06/23 02:12:27;;;;;;;6.95;4.65;;;19.10;74.40;;;;;;4976665;28;20026;-83
2022/06/23 02:15:13;;;;;;;6.50;4.13;;;19.10;74.60;;;;;;4992701;28;20046;-83
2022/06/23 02:17:53;;;;;;;6.60;4.53;;;19.10;75.10;;;;;;4977090;28;20060;-83
2022/06/23 02:20:46;;;;;;;8.20;4.55;;;19.10;75.20;;;;;;4987948;28;20035;-82
2022/06/23 02:23:16;;;;;;;7.15;4.57;;;19.20;75.00;;;;;;4980313;28;20488;-82
2022/06/23 02:25:54;;;;;;;8.50;4.90;;;19.20;75.00;;;;;;4993271;28;20036;-82
2022/06/23 02:28:32;;;;;;;7.78;4.35;;;19.20;74.80;;;;;;4994054;28;20038;-82
2022/06/23 02:31:16;;;;;;;8.48;4.47;;;19.20;74.70;;;;;;4979712;28;20030;-82
2022/06/23 02:33:50;;;;;;;7.25;4.65;;;19.20;74.80;;;;;;4987455;28;20034;-83
2022/06/23 02:36:53;;;;;;;8.48;4.85;;;19.10;74.70;;;;;;4978210;28;20093;-81
2022/06/23 02:39:45;;;;;;;8.57;4.90;;;19.10;74.70;;;;;;4975758;28;20026;-82
2022/06/23 02:42:28;;;;;;;8.43;4.93;;;19.10;74.50;;;;;;4980689;28;20110;-82
2022/06/23 02:45:18;;;;;;;8.55;5.03;;;19.10;74.50;;;;;;4990544;28;20030;-82
2022/06/23 02:48:04;;;;;;;7.55;4.50;;;19.10;74.20;;;;;;4972729;28;20019;-82
2022/06/23 02:50:41;;;;;;;7.70;4.57;;;19.10;74.20;;;;;;4992018;28;20222;-83
2022/06/23 02:53:31;;;;;;;7.40;4.63;;;19.00;73.90;;;;;;5000766;28;20045;-83
2022/06/23 02:56:20;;;;;;;7.90;4.88;;;19.00;73.80;;;;;;4984585;28;20053;-83
2022/06/23 02:58:55;;;;;;;7.72;4.63;;;19.00;73.60;;;;;;4996605;28;20045;-83
2022/06/23 03:01:30;;;;;;;7.13;4.40;;;19.00;73.40;;;;;;4995760;28;20042;-83
2022/06/23 03:04:08;;;;;;;7.82;4.40;;;18.90;73.40;;;;;;4995334;28;20076;-82
2022/06/23 03:06:39;;;;;;;9.32;4.72;;;19.00;73.30;;;;;;4982792;28;20034;-82
2022/06/23 03:09:18;;;;;;;7.45;4.80;;;19.00;73.70;;;;;;4995811;28;20034;-83
2022/06/23 03:12:06;;;;;;;6.38;4.07;;;19.00;74.90;;;;;;4994984;28;20037;-82
2022/06/23 03:14:42;;;;;;;6.53;4.40;;;19.00;75.10;;;;;;4994796;28;20094;-82
2022/06/23 03:17:25;;;;;;;7.43;4.57;;;19.00;74.70;;;;;;4994944;28;20026;-82
2022/06/23 03:19:59;;;;;;;6.65;4.18;;;19.10;74.60;;;;;;4993981;28;20081;-83
2022/06/23 03:23:02;;;;;;;6.80;4.28;;;19.10;74.40;;;;;;4994431;28;20034;-82
2022/06/23 03:25:33;;;;;;;6.75;4.10;;;19.10;74.10;;;;;;4969136;28;20038;-83
2022/06/23 03:28:07;;;;;;;7.43;4.57;;;19.10;74.10;;;;;;4993204;28;20034;-82
2022/06/23 03:30:43;;;;;;;7.97;4.80;;;19.10;73.90;;;;;;4993549;28;20495;-82
2022/06/23 03:33:27;;;;;;;7.88;4.45;;;19.10;73.90;;;;;;4955790;28;20042;-83
2022/06/23 03:35:57;;;;;;;6.68;4.30;;;19.00;73.70;;;;;;4979837;28;20032;-82
2022/06/23 03:41:53;;;;;;;8.18;4.72;;;19.00;73.60;;;;;;4993152;28;20418;-83
2022/06/23 03:44:32;;;;;;;8.57;4.47;;;19.00;73.70;;;;;;4991292;28;20026;-83
2022/06/23 03:47:03;;;;;;;7.97;4.47;;;19.00;73.90;;;;;;4992016;28;20057;-82
2022/06/23 03:50:01;;;;;;;9.90;4.50;;;19.00;73.80;;;;;;4991673;28;20057;-83
2022/06/23 03:52:30;;;;;;;7.13;4.55;;;19.00;73.80;;;;;;4979674;28;20030;-82
2022/06/23 03:55:08;;;;;;;8.52;4.57;;;19.00;73.80;;;;;;4978768;28;20057;-82
2022/06/23 03:57:44;;;;;;;7.50;4.55;;;18.90;73.80;;;;;;4991880;28;20378;-82
2022/06/23 04:00:17;;;;;;;8.63;5.05;;;19.00;74.00;;;;;;4991922;28;20030;-82
2022/06/23 04:02:46;;;;;;;7.32;4.20;;;18.90;74.30;;;;;;4991785;28;20018;-82
2022/06/23 04:05:38;;;;;;;6.38;3.95;;;18.90;74.50;;;;;;4990751;28;20045;-82
2022/06/23 04:08:04;;;;;;;7.50;4.50;;;19.00;75.70;;;;;;4969880;28;20054;-82
2022/06/23 04:10:34;;;;;;;7.88;4.55;;;18.90;75.00;;;;;;4974918;28;20035;-82
2022/06/23 04:13:06;;;;;;;7.72;4.30;;;19.00;74.90;;;;;;4991603;28;20781;-82
2022/06/23 04:15:39;;;;;;;7.15;4.40;;;19.10;75.00;;;;;;4976623;28;20022;-83
2022/06/23 04:18:12;;;;;;;7.35;4.25;;;19.10;75.00;;;;;;4996292;28;20034;-82
2022/06/23 04:20:47;;;;;;;8.07;4.45;;;19.10;75.00;;;;;;4995442;28;20014;-82
2022/06/23 04:23:29;;;;;;;8.63;4.80;;;19.00;74.90;;;;;;4978550;28;20030;-81
2022/06/23 04:26:22;;;;;;;6.30;4.35;;;19.00;75.00;;;;;;4997966;28;20498;-83
2022/06/23 04:28:52;;;;;;;6.82;4.45;;;19.00;75.10;;;;;;4993252;28;20050;-82
2022/06/23 04:31:31;;;;;;;7.60;4.60;;;19.00;75.20;;;;;;4977001;28;20078;-82
2022/06/23 04:33:58;;;;;;;6.87;4.47;;;19.00;75.30;;;;;;4994067;28;20040;-82
2022/06/23 04:36:29;;;;;;;8.02;4.63;;;19.00;75.20;;;;;;4976353;28;20030;-80
2022/06/23 04:39:16;;;;;;;8.98;5.03;;;19.00;75.30;;;;;;4978034;28;20030;-83
2022/06/23 04:41:46;;;;;;;6.55;4.72;;;18.90;75.60;;;;;;4979044;28;20046;-82
2022/06/23 04:44:23;;;;;;;8.60;5.22;;;18.90;75.50;;;;;;4975776;28;20034;-82
2022/06/23 04:47:00;;;;;;;7.05;4.88;;;18.90;75.70;;;;;;4972075;28;20483;-81
2022/06/23 04:49:40;;;;;;;7.85;4.95;;;19.00;75.80;;;;;;4975133;28;20034;-82
2022/06/23 04:52:24;;;;;;;7.60;5.18;;;18.90;75.80;;;;;;4993625;28;20034;-82
2022/06/23 04:54:54;;;;;;;7.50;4.70;;;19.00;76.00;;;;;;4961668;28;20057;-82
2022/06/23 04:57:32;;;;;;;7.47;5.10;;;18.90;75.90;;;;;;4993097;28;20118;-81
2022/06/23 05:00:01;;;;;;;8.32;4.60;;;18.90;76.20;;;;;;4993082;28;20128;-81
2022/06/23 05:02:42;;;;;;;8.20;5.40;;;18.90;76.20;;;;;;4992902;28;20082;-81
2022/06/23 05:05:14;;;;;;;8.65;5.32;;;19.00;76.50;;;;;;4992666;28;20054;-82
2022/06/23 05:08:05;;;;;;;;;;;18.90;76.70;;;;;;4977455;28;20054;-82
2022/06/23 05:10:41;;;;;;;8.75;5.22;;;19.00;76.70;;;;;;4993653;28;20116;-82
2022/06/23 05:13:18;;;;;;;8.07;5.13;;;19.00;76.70;;;;;;4994391;28;20022;-82
2022/06/23 05:15:48;;;;;;;9.00;5.40;;;19.10;76.90;;;;;;4985952;28;20534;-81
2022/06/23 05:18:38;;;;;;;8.80;5.80;;;19.10;76.90;;;;;;4994445;28;20022;-80
2022/06/23 05:21:29;;;;;;;10.15;5.50;;;19.00;77.20;;;;;;4973978;28;20033;-81
2022/06/23 05:24:02;;;;;;;9.57;5.82;;;19.00;77.20;;;;;;4971479;28;20035;-75
2022/06/23 05:26:36;;;;;;;10.70;5.45;;;19.00;77.30;;;;;;4986916;28;20035;-79
2022/06/23 05:29:11;;;;;;;7.72;5.32;;;19.00;77.40;;;;;;4969156;28;20574;-75
2022/06/23 05:31:39;;;;;;;7.70;5.38;;;19.00;77.70;;;;;;4989758;28;20030;-76
2022/06/23 05:34:16;;;;;;;7.78;5.00;;;19.00;77.40;;;;;;5005775;28;20180;-75
2022/06/23 05:36:56;;;;;;;8.48;5.50;;;19.00;77.40;;;;;;5000540;28;20099;-76
2022/06/23 05:39:29;;;;;;;9.15;5.80;;;19.00;78.30;;;;;;4977616;28;20030;-74
2022/06/23 05:41:59;;;;;;;9.10;5.40;;;19.00;77.80;;;;;;4998481;28;20041;-75
2022/06/23 05:44:31;;;;;;;8.98;5.40;;;19.00;78.40;;;;;;4973206;28;20124;-74
2022/06/23 05:47:00;;;;;;;8.88;5.68;;;19.00;78.70;;;;;;4976432;28;20403;-75
2022/06/23 05:49:35;;;;;;;9.55;5.82;;;19.00;78.90;;;;;;4977259;28;20060;-75
2022/06/23 05:52:14;;;;;;;9.45;5.82;;;19.00;79.00;;;;;;4979252;28;20453;-76
2022/06/23 05:55:15;;;;;;;9.40;5.82;;;18.90;78.90;;;;;;4991099;28;20026;-75
2022/06/23 05:57:55;;;;;;;7.53;5.18;;;19.00;78.30;;;;;;4981186;28;20200;-74
2022/06/23 06:00:54;;;;;;;10.32;5.68;;;19.00;77.30;;;;;;4995107;28;20149;-76
2022/06/23 06:03:25;;;;;;;9.45;5.82;;;19.00;78.10;;;;;;4966263;28;20585;-75
2022/06/23 06:05:54;;;;;;;8.07;5.35;;;19.10;77.70;;;;;;4986234;28;20046;-76
2022/06/23 06:08:33;;;;;;;8.00;4.65;;;19.20;77.20;;;;;;4969391;28;20034;-75
2022/06/23 06:11:03;;;;;;;8.35;4.93;;;19.10;75.60;;;;;;4989895;28;20026;-76
2022/06/23 06:13:38;;;;;;;9.05;4.90;;;19.20;75.30;;;;;;4971858;28;20030;-76
2022/06/23 06:16:04;;;;;;;8.95;5.00;;;19.20;75.00;;;;;;4989135;28;20384;-76
2022/06/23 06:18:37;;;;;;;9.40;4.93;;;19.20;74.70;;;;;;4971779;28;20494;-76
2022/06/23 06:21:06;;;;;;;8.02;5.03;;;19.20;75.30;;;;;;4989204;28;20034;-75
2022/06/23 06:23:54;;;;;;;8.25;4.60;;;19.20;75.20;;;;;;4989129;28;20030;-76
2022/06/23 06:26:23;;;;;;;6.80;4.50;;;19.20;73.60;;;;;;4989548;28;20466;-76
2022/06/23 06:28:53;;;;;;;7.82;4.30;;;19.30;73.50;;;;;;4989454;28;20507;-76
2022/06/23 06:31:38;;;;;;;7.63;4.63;;;19.30;73.20;;;;;;4989849;28;20042;-75
2022/06/23 06:34:28;;;;;;;7.72;4.45;;;19.30;72.80;;;;;;4971721;28;20022;-76
2022/06/23 06:36:53;;;;;;;7.97;4.47;;;19.30;73.00;;;;;;4989172;28;20026;-76
2022/06/23 06:39:26;;;;;;;7.18;3.83;;;19.30;72.80;;;;;;4989456;28;20058;-76
2022/06/23 06:42:06;;;;;;;7.03;4.10;;;19.40;72.50;;;;;;4971528;28;20125;-75
2022/06/23 06:44:35;;;;;;;7.13;3.33;;;19.40;72.30;;;;;;4988777;28;20506;-76
2022/06/23 06:47:01;;;;;;;7.72;3.92;;;19.40;72.10;;;;;;4971599;28;20759;-76
2022/06/23 06:49:29;;;;;;;7.82;4.10;;;19.40;71.80;;;;;;4988836;28;20049;-75
2022/06/23 06:51:56;;;;;;;7.30;3.78;;;19.50;70.60;;;;;;4971462;28;20034;-75
2022/06/23 06:54:27;;;;;;;6.72;3.53;;;19.60;70.50;;;;;;4971198;28;20062;-75
2022/06/23 06:56:55;;;;;;;7.13;3.60;;;19.60;70.20;;;;;;4971392;28;20026;-77
2022/06/23 06:59:38;;;;;;;8.25;3.83;;;19.60;70.10;;;;;;4971386;28;20357;-75
2022/06/23 07:02:17;;;;;;;6.35;3.70;;;19.70;70.20;;;;;;4989088;28;20486;-75
2022/06/23 07:04:48;;;;;;;8.18;3.60;;;19.70;70.20;;;;;;4971058;28;20031;-77
2022/06/23 07:07:21;;;;;;;6.88;3.60;;;19.70;70.40;;;;;;4988526;28;20040;-75
2022/06/23 07:09:57;;;;;;;7.38;3.85;;;19.80;70.30;;;;;;4971249;28;20026;-76
2022/06/23 07:12:30;;;;;;;9.88;3.70;;;19.80;70.60;;;;;;4970984;28;20161;-76
2022/06/23 07:15:35;;;;;;;6.97;3.67;;;19.80;70.70;;;;;;4988276;28;20100;-76
2022/06/23 07:18:24;;;;;;;7.13;3.67;;;19.80;70.70;;;;;;4988383;28;20396;-75
2022/06/23 07:21:11;;;;;;;7.47;3.75;;;19.80;70.60;;;;;;4987564;28;20064;-76
2022/06/23 07:23:39;;;;;;;7.30;3.60;;;19.80;70.60;;;;;;4971101;28;20046;-76
2022/06/23 07:26:24;;;;;;;7.30;3.40;;;19.90;70.60;;;;;;4988645;28;20034;-76
2022/06/23 07:28:55;;;;;;;7.22;3.50;;;19.90;70.40;;;;;;4988005;28;20567;-75
2022/06/23 07:31:28;;;;;;;6.10;3.10;;;19.90;70.30;;;;;;4988192;28;20345;-75
2022/06/23 07:34:00;;;;;;;7.82;3.63;;;20.00;70.70;;;;;;4987727;28;20026;-76
2022/06/23 07:36:55;;;;;;;7.97;3.50;;;20.00;70.90;;;;;;4988374;28;20033;-76
2022/06/23 07:39:29;;;;;;;6.47;3.75;;;20.00;70.40;;;;;;4986901;28;20045;-76
2022/06/23 07:42:16;;;;;;;7.28;3.78;;;20.10;70.40;;;;;;4970481;28;20022;-76
2022/06/23 07:44:50;;;;;;;7.72;4.13;;;20.10;70.70;;;;;;4987257;28;20587;-76
2022/06/23 07:47:17;;;;;;;8.20;4.03;;;20.10;70.90;;;;;;4987962;28;20037;-76
2022/06/23 07:49:43;;;;;;;5.80;3.30;;;20.10;70.80;;;;;;4987829;28;20034;-76
2022/06/23 07:52:15;;;;;;;7.22;3.67;;;20.20;70.80;;;;;;4988023;28;20033;-76
2022/06/23 07:54:42;;;;;;;5.40;3.38;;;20.20;70.70;;;;;;4987623;28;20077;-76
2022/06/23 07:57:09;;;;;;;7.10;3.58;;;20.30;70.60;;;;;;4987614;28;20029;-75
2022/06/23 07:59:44;;;;;;;8.32;3.88;;;20.30;70.60;;;;;;4970155;28;20026;-74
2022/06/23 08:02:26;;;;;;;7.03;3.90;;;20.40;70.40;;;;;;4987802;28;20030;-75
2022/06/23 08:04:56;;;;;;;6.20;4.13;;;20.40;70.30;;;;;;4987140;28;20034;-75
2022/06/23 08:07:23;;;;;;;6.82;3.95;;;20.40;70.30;;;;;;4970142;28;20122;-77
2022/06/23 08:09:55;;;;;;;6.55;4.10;;;20.40;70.40;;;;;;4969909;28;20026;-75
2022/06/23 08:12:55;;;;;;;6.18;3.38;;;20.40;70.30;;;;;;4987440;28;20555;-76
2022/06/23 08:18:45;;;;;;;7.18;4.32;;;20.50;70.40;;;;;;4987960;28;20034;-76
2022/06/23 08:21:15;;;;;;;6.55;3.55;;;20.50;70.10;;;;;;4987172;28;20177;-76
2022/06/23 08:23:51;;;;;;;10.13;4.43;;;20.50;70.00;;;;;;4987461;28;20034;-75
2022/06/23 08:26:20;;;;;;;7.93;3.88;;;20.50;70.20;;;;;;4988688;28;20056;-74
2022/06/23 08:28:48;;;;;;;6.88;3.72;;;20.60;70.40;;;;;;4996326;28;20493;-74
2022/06/23 08:31:14;;;;;;;5.85;3.80;;;20.60;70.20;;;;;;4974607;28;20115;-74
2022/06/23 08:33:40;;;;;;;7.75;3.70;;;20.60;70.50;;;;;;4968014;28;20125;-75
2022/06/23 08:36:11;;;;;;;5.97;3.63;;;20.60;70.50;;;;;;4989833;28;20083;-74
2022/06/23 08:39:00;;;;;;;6.47;3.65;;;20.60;70.80;;;;;;4996836;28;20017;-75
2022/06/23 08:41:40;;;;;;;7.70;3.75;;;20.70;70.70;;;;;;4978192;28;20037;-75
2022/06/23 08:44:26;;;;;;;6.80;3.75;;;20.70;70.40;;;;;;4970504;28;20030;-74
2022/06/23 08:46:54;;;;;;;7.55;3.92;;;20.80;70.70;;;;;;4991513;28;20060;-74
2022/06/23 08:49:48;;;;;;;8.02;3.97;;;20.90;70.00;;;;;;4994111;28;20029;-74
2022/06/23 08:52:21;;;;;;;6.25;3.40;;;20.90;69.90;;;;;;4991928;28;20022;-75
2022/06/23 08:55:10;;;;;;;7.07;4.18;;;20.90;69.60;;;;;;4987345;28;20100;-74
2022/06/23 08:57:49;;;;;;;6.03;3.55;;;21.00;69.80;;;;;;4985091;28;20019;-74
2022/06/23 09:00:26;;;;;;;6.82;3.60;;;21.00;69.60;;;;;;4990298;28;20451;-72
2022/06/23 09:02:56;;;;;;;6.00;3.22;;;21.00;69.60;;;;;;4994057;28;20038;-74
2022/06/23 09:05:31;;;;;;;7.25;3.10;;;21.10;69.50;;;;;;4995588;28;20125;-73
2022/06/23 09:08:34;;;;;;;6.82;3.70;;;21.10;69.40;;;;;;4970900;28;20079;-74
2022/06/23 09:11:18;;;;;;;7.85;3.78;;;21.20;69.60;;;;;;4995091;28;20022;-74
2022/06/23 09:14:07;;;;;;;10.20;3.53;;;21.10;69.40;;;;;;4998182;28;20470;-74
2022/06/23 09:16:56;;;;;;;7.93;3.63;;;21.10;69.30;;;;;;4996891;28;20041;-74
2022/06/23 09:19:52;;;;;;;4.97;3.30;;;21.20;69.70;;;;;;4991793;28;20057;-74
2022/06/23 09:22:29;;;;;;;6.20;3.30;;;21.10;69.70;;;;;;4996076;28;20018;-74
2022/06/23 09:25:14;;;;;;;6.03;3.35;;;21.20;70.10;;;;;;4996514;28;20446;-73
2022/06/23 09:27:52;;;;;;;8.32;3.20;;;21.20;70.30;;;;;;4979496;28;20026;-74
2022/06/23 09:30:40;;;;;;;5.90;3.28;;;21.20;70.10;;;;;;4994622;28;20030;-74
2022/06/23 09:33:27;;;;;;;5.68;3.00;;;21.20;70.00;;;;;;4975430;28;20167;-74
2022/06/23 09:36:09;;;;;;;6.30;3.72;;;21.20;69.90;;;;;;4975695;28;20038;-74
2022/06/23 09:39:11;;;;;;;5.75;3.33;;;21.20;70.20;;;;;;4982286;28;20021;-74
2022/06/23 09:42:06;;;;;;;8.27;3.30;;;21.30;69.40;;;;;;4986897;28;20060;-75
2022/06/23 09:44:49;;;;;;;7.40;3.15;;;21.40;68.60;;;;;;4982202;28;20521;-74
2022/06/23 09:47:36;;;;;;;5.50;3.00;;;21.50;68.40;;;;;;4976356;28;20436;-74
2022/06/23 09:50:18;;;;;;;5.07;2.80;;;21.50;68.00;;;;;;4979732;28;20036;-75
2022/06/23 09:53:18;;;;;;;5.90;3.30;;;21.60;67.90;;;;;;4986788;28;20026;-74
2022/06/23 09:56:12;;;;;;;7.63;3.30;;;21.70;67.70;;;;;;4975589;28;20027;-74
2022/06/23 09:59:13;;;;;;;5.05;3.05;;;21.70;66.60;;;;;;4984966;28;20720;-75
2022/06/23 10:01:49;;;;;;;6.18;3.00;;;21.70;66.00;;;;;;4989025;28;20022;-75
2022/06/23 10:04:41;;;;;;;5.70;2.80;;;21.80;65.50;;;;;;4978160;28;20064;-74
2022/06/23 10:07:31;;;;;;;5.60;2.70;;;21.80;65.10;;;;;;4997764;28;20060;-74
2022/06/23 10:10:12;;;;;;;4.55;2.78;;;21.80;65.50;;;;;;4996409;28;20030;-74
2022/06/23 10:13:14;;;;;;;7.95;3.05;;;21.90;65.50;;;;;;4996274;28;20018;-74
2022/06/23 10:15:50;;;;;;;5.22;3.05;;;21.80;65.80;;;;;;4996508;28;20081;-74
2022/06/23 10:18:26;;;;;;;5.93;2.97;;;21.80;66.50;;;;;;4977033;28;20081;-74
2022/06/23 10:21:31;;;;;;;4.93;2.85;;;21.90;66.00;;;;;;4978167;28;20462;-75
2022/06/23 10:24:34;;;;;;;4.53;2.45;;;21.90;65.60;;;;;;4992388;28;20026;-74
2022/06/23 10:27:16;;;;;;;16.00;2.90;;;22.00;64.50;;;;;;5001184;28;20021;-78
2022/06/23 10:30:09;;;;;;;6.22;2.70;;;22.10;62.90;;;;;;4999499;28;20083;-75
2022/06/23 10:32:49;;;;;;;6.85;2.95;;;22.20;62.50;;;;;;4994944;28;20026;-74
2022/06/23 10:35:53;;;;;;;5.78;2.58;;;22.20;62.40;;;;;;5004447;28;20034;-74
2022/06/23 10:38:34;;;;;;;4.60;2.40;;;22.20;62.20;;;;;;4964619;28;20096;-74
2022/06/23 10:41:36;;;;;;;5.90;2.83;;;22.20;62.00;;;;;;4999795;28;20494;-74
2022/06/23 10:44:20;;;;;;;6.00;2.70;;;22.20;61.40;;;;;;4982520;28;20026;-75
2022/06/23 10:47:15;;;;;;;5.00;2.90;;;22.20;61.80;;;;;;4989908;28;20026;-73
2022/06/23 10:49:58;;;;;;;4.30;2.58;;;22.10;61.40;;;;;;4992526;28;20133;-74
2022/06/23 10:52:42;;;;;;;5.47;2.63;;;22.00;61.60;;;;;;4999424;28;20149;-73
2022/06/23 10:55:15;;;;;;;5.72;2.40;;;22.00;62.00;;;;;;4975864;28;20057;-74
2022/06/23 10:58:06;;;;;;;7.00;2.63;;;22.00;61.50;;;;;;4995001;28;20030;-75
2022/06/23 11:00:56;;;;;;;4.88;2.78;;;22.10;61.20;;;;;;4976378;28;20032;-74
2022/06/23 11:03:42;;;;;;;5.60;2.90;;;22.20;60.60;;;;;;4992483;28;20415;-75
2022/06/23 11:06:26;;;;;;;4.72;2.83;;;22.20;60.10;;;;;;5002963;28;20052;-74
2022/06/23 11:09:02;;;;;;;4.93;2.63;;;22.30;59.70;;;;;;4983270;28;20522;-74
2022/06/23 11:11:48;;;;;;;3.65;2.30;;;22.30;59.40;;;;;;4994918;28;20033;-75
2022/06/23 11:14:46;;;;;;;5.82;2.80;;;22.30;58.60;;;;;;4979071;28;20499;-75
2022/06/23 11:17:37;;;;;;;4.55;2.50;;;22.50;57.60;;;;;;4959958;28;20603;-74
2022/06/23 11:20:03;;;;;;;4.13;2.50;;;22.50;56.90;;;;;;4994414;28;20038;-73
2022/06/23 11:22:50;;;;;;;6.63;2.80;;;22.40;57.60;;;;;;4975474;28;20036;-75
2022/06/23 11:25:37;;;;;;;5.50;2.50;;;22.50;57.10;;;;;;4975606;28;20449;-74
2022/06/23 11:28:20;;;;;;;6.00;2.60;;;22.60;56.80;;;;;;4996958;28;20030;-74
2022/06/23 11:31:13;;;;;;;7.78;2.45;;;22.70;56.30;;;;;;4993400;28;20237;-74
2022/06/23 11:34:23;;;;;;;5.35;2.60;;;22.70;56.30;;;;;;4978324;28;20072;-75
2022/06/23 11:37:13;;;;;;;5.40;2.58;;;22.70;55.40;;;;;;4951359;28;20043;-73
2022/06/23 11:39:59;;;;;;;5.35;2.40;;;22.70;55.30;;;;;;4967094;28;20034;-74
2022/06/23 11:43:00;;;;;;;4.40;2.50;;;22.60;55.70;;;;;;4993323;28;20032;-74
2022/06/23 11:45:41;;;;;;;3.42;2.13;;;22.60;54.90;;;;;;4994912;28;20053;-74
2022/06/23 11:48:32;;;;;;;4.38;2.35;;;22.70;54.80;;;;;;4976015;28;20179;-74
2022/06/23 11:51:22;;;;;;;5.88;2.42;;;22.70;54.40;;;;;;4978220;28;20037;-74
2022/06/23 11:54:34;;;;;;;4.13;2.50;;;22.70;54.60;;;;;;4974144;28;20036;-74
2022/06/23 11:57:11;;;;;;;6.28;2.55;;;22.50;54.80;;;;;;5004897;28;20423;-73
2022/06/23 11:59:46;;;;;;;8.07;2.53;;;22.50;55.40;;;;;;4994143;28;20096;-74
2022/06/23 12:02:11;;;;;;;5.03;2.60;;;22.40;55.80;;;;;;4991701;28;20026;-75
2022/06/23 12:04:57;;;;;;;3.60;2.38;;;22.30;56.40;;;;;;4995279;28;20033;-74
2022/06/23 12:07:50;;;;;;;5.47;2.35;;;22.40;56.60;;;;;;4994951;28;20041;-74
2022/06/23 12:10:22;;;;;;;4.15;2.50;;;22.40;56.40;;;;;;4995055;28;20093;-74
2022/06/23 12:12:50;;;;;;;4.90;2.30;;;22.30;57.20;;;;;;4992350;28;20089;-74
2022/06/23 12:15:24;;;;;;;5.47;2.40;;;22.40;57.50;;;;;;4976915;28;20053;-74
2022/06/23 12:18:09;;;;;;;5.15;2.53;;;22.40;57.10;;;;;;4995201;28;20029;-74
2022/06/23 12:20:46;;;;;;;5.72;2.53;;;22.40;56.80;;;;;;4987369;28;20092;-74
2022/06/23 12:23:12;;;;;;;4.88;2.25;;;22.50;56.80;;;;;;4982978;28;20030;-74
2022/06/23 12:26:04;;;;;;;6.00;2.50;;;22.50;56.90;;;;;;4981235;28;20033;-74
2022/06/23 12:28:57;;;;;;;6.43;2.40;;;22.50;56.20;;;;;;5003948;28;20092;-75
2022/06/23 12:31:45;;;;;;;4.95;2.60;;;22.40;56.20;;;;;;5005899;28;20068;-74
2022/06/23 12:34:32;;;;;;;5.35;2.72;;;22.40;56.50;;;;;;4981894;28;20392;-75
2022/06/23 12:37:10;;;;;;;4.75;2.63;;;22.40;56.70;;;;;;4993598;28;20286;-74
2022/06/23 12:40:01;;;;;;;6.13;2.88;;;22.30;56.80;;;;;;4994504;28;20030;-74
2022/06/23 12:42:50;;;;;;;6.72;2.47;;;22.40;56.60;;;;;;4993080;28;20507;-74
2022/06/23 12:45:51;;;;;;;4.80;2.40;;;22.40;56.50;;;;;;4972059;28;20341;-74
2022/06/23 12:48:37;;;;;;;5.20;2.60;;;22.40;56.10;;;;;;4977182;28;20033;-74
2022/06/23 12:51:22;;;;;;;5.45;2.45;;;22.30;56.40;;;;;;4991122;28;20106;-75
2022/06/23 12:54:11;;;;;;;4.82;2.65;;;22.40;56.20;;;;;;4973844;28;20056;-75
2022/06/23 12:56:42;;;;;;;4.63;2.40;;;22.40;56.10;;;;;;4972134;28;20030;-74
2022/06/23 12:59:47;;;;;;;5.68;2.60;;;22.40;55.70;;;;;;5001048;28;20534;-74
2022/06/23 13:02:29;;;;;;;5.80;2.50;;;22.30;55.70;;;;;;4993400;28;20377;-74
2022/06/23 13:05:22;;;;;;;3.72;2.53;;;22.30;56.60;;;;;;5004989;28;20037;-74
2022/06/23 13:07:54;;;;;;;7.72;2.80;;;22.30;56.90;;;;;;4987819;28;20522;-75
2022/06/23 13:10:36;;;;;;;5.57;2.53;;;22.30;56.90;;;;;;5000477;28;20022;-74
2022/06/23 13:13:07;;;;;;;5.15;2.45;;;22.20;57.30;;;;;;4985461;28;20058;-75
2022/06/23 13:15:34;;;;;;;;;;;22.30;56.90;;;;;;4985704;28;20496;-75
2022/06/23 13:18:04;;;;;;;7.15;2.83;;;22.30;57.30;;;;;;4993386;28;19956;-75
2022/06/23 13:20:40;;;;;;;4.82;2.40;;;22.20;56.70;;;;;;4985689;28;20041;-75
2022/06/23 13:23:12;;;;;;;4.43;2.30;;;22.20;57.10;;;;;;4985056;28;20030;-75
2022/06/23 13:25:45;;;;;;;4.57;2.53;;;22.10;56.70;;;;;;4985260;28;20069;-75
2022/06/23 13:28:39;;;;;;;4.32;2.50;;;22.10;56.90;;;;;;4985744;28;20034;-75
2022/06/23 13:31:17;;;;;;;4.38;2.60;;;22.10;56.40;;;;;;4985361;28;20069;-75
2022/06/23 13:33:52;;;;;;;4.60;2.60;;;22.00;56.40;;;;;;4985474;28;20030;-75
2022/06/23 13:36:27;;;;;;;4.93;2.58;;;22.00;56.50;;;;;;4985196;28;20452;-75
2022/06/23 13:39:13;;;;;;;6.70;2.70;;;22.00;56.60;;;;;;4985702;28;20156;-75
2022/06/23 13:41:48;;;;;;;4.50;2.78;;;21.90;56.90;;;;;;5001467;28;20038;-75
2022/06/23 13:44:19;;;;;;;4.50;2.53;;;21.90;56.70;;;;;;4962575;28;20502;-75
2022/06/23 13:46:57;;;;;;;4.82;2.60;;;21.90;56.80;;;;;;4974149;28;20109;-75
2022/06/23 13:49:39;;;;;;;5.68;2.72;;;21.90;56.50;;;;;;4982774;28;20033;-75
2022/06/23 13:52:22;;;;;;;6.38;2.70;;;22.00;56.00;;;;;;4979173;28;20041;-75
2022/06/23 13:55:11;;;;;;;5.05;2.53;;;22.10;55.70;;;;;;5005007;28;20085;-75
2022/06/23 13:57:56;;;;;;;5.57;2.78;;;22.10;56.70;;;;;;4987842;28;20088;-75
2022/06/23 14:00:46;;;;;;;4.63;2.60;;;22.00;56.10;;;;;;4987560;28;20026;-76